Hlavní strana
METAR-TAF:

METAR-TAF

Letiště :

Nîmes, Francie

zeměpisná šířka: 43-45N, zeměpisná délka: 004-25E, výška: 94 m

Aktuální stav počasí

Zpráva byla vytvořena před 25 minutami, v 23:30 UTC
Severoseverozápadní vítr 1 kt
Teplota 9°C
Vlhkost vzduchu 93%
Tlak 1018 hPa
Viditelnost 10 km a více
Žádná oblačnost pod 1500 m, nevyskytují se cumulonimby.

METAR: LFTW 212330Z AUTO 34001KT CAVOK 09/08 Q1018

Čas: 01:55 (23:55 UTC)

Předpověď počasí

Zpráva byla vytvořena před 9 hodinami a 55 minutami, v 14:00 UTC
Předpověď platná od 21 v 15 UTC do 22 v 15 UTC
Jihojihovýchodní vítr 10 kt
Viditelnost 10 km a více
Oblačno až skoro zataženo ve výšce 4000 ft
Změna
od 21 v 18 UTC do 21 v 20 UTC
vítr z různých směrů 3 kt

TAF: LFTW 211400Z 2115/2215 15010KT 9999 BKN040 BECMG 2118/2120 VRB03KT

Stav a předpovědi počasí z více než 4 000 letišť (zprávy METAR a TAF).

Červené a žluté tečky na mapě představují dostupné meteorologické stanice.

Když kurzor umístíte na tečku, zobrazí se název stanice.

Pak kliknutím zobrazíte stav a předpověď počasí.

Chcete-li změnit mapu, kliknutím na zelené tlačítko se znaménkem +mapu přiblížíte, kliknutím na zelené tlačítko se znaménkem – mapu oddálíte a kliknutím na zelené šipky přejdete na sousední mapy.


METAR-TAF: